sensor_id;sensor_type;location;lat;lon;timestamp;temperature;humidity
35960;DHT22;22043;50.970;7.192;2022-08-01T00:01:54;19.70;99.90
35960;DHT22;22043;50.970;7.192;2022-08-01T00:04:20;19.60;99.90
35960;DHT22;22043;50.970;7.192;2022-08-01T00:06:45;19.60;99.90
35960;DHT22;22043;50.970;7.192;2022-08-01T00:09:11;19.60;99.90
35960;DHT22;22043;50.970;7.192;2022-08-01T00:11:37;19.60;99.90
35960;DHT22;22043;50.970;7.192;2022-08-01T00:14:03;19.50;99.90
35960;DHT22;22043;50.970;7.192;2022-08-01T00:16:28;19.50;99.90
35960;DHT22;22043;50.970;7.192;2022-08-01T00:18:54;19.50;99.90
35960;DHT22;22043;50.970;7.192;2022-08-01T00:21:21;19.50;99.90
35960;DHT22;22043;50.970;7.192;2022-08-01T00:23:47;19.50;99.90
35960;DHT22;22043;50.970;7.192;2022-08-01T00:26:13;19.50;99.90
35960;DHT22;22043;50.970;7.192;2022-08-01T00:28:39;19.40;99.90
35960;DHT22;22043;50.970;7.192;2022-08-01T00:31:05;19.40;99.90
35960;DHT22;22043;50.970;7.192;2022-08-01T00:33:30;19.40;99.90
35960;DHT22;22043;50.970;7.192;2022-08-01T00:35:56;19.40;99.90
35960;DHT22;22043;50.970;7.192;2022-08-01T00:38:22;19.40;99.90
35960;DHT22;22043;50.970;7.192;2022-08-01T00:40:48;19.40;99.90
35960;DHT22;22043;50.970;7.192;2022-08-01T00:43:14;19.40;99.90
35960;DHT22;22043;50.970;7.192;2022-08-01T00:45:40;19.40;99.90
35960;DHT22;22043;50.970;7.192;2022-08-01T00:48:06;19.40;99.90
35960;DHT22;22043;50.970;7.192;2022-08-01T00:50:32;19.40;99.90
35960;DHT22;22043;50.970;7.192;2022-08-01T00:52:59;19.40;99.90
35960;DHT22;22043;50.970;7.192;2022-08-01T00:55:26;19.40;99.90
35960;DHT22;22043;50.970;7.192;2022-08-01T00:57:52;19.40;99.90
35960;DHT22;22043;50.970;7.192;2022-08-01T01:00:18;19.40;99.90
35960;DHT22;22043;50.970;7.192;2022-08-01T01:02:44;19.40;99.90
35960;DHT22;22043;50.970;7.192;2022-08-01T01:05:09;19.40;99.90
35960;DHT22;22043;50.970;7.192;2022-08-01T01:10:37;19.30;99.90
35960;DHT22;22043;50.970;7.192;2022-08-01T01:13:20;19.30;99.90
35960;DHT22;22043;50.970;7.192;2022-08-01T01:15:58;19.30;99.90
35960;DHT22;22043;50.970;7.192;2022-08-01T01:18:27;19.20;99.90
35960;DHT22;22043;50.970;7.192;2022-08-01T01:29:17;19.20;99.90
35960;DHT22;22043;50.970;7.192;2022-08-01T01:31:56;19.20;99.90
35960;DHT22;22043;50.970;7.192;2022-08-01T01:34:23;19.20;99.90
35960;DHT22;22043;50.970;7.192;2022-08-01T01:36:50;19.20;99.90
35960;DHT22;22043;50.970;7.192;2022-08-01T01:39:17;19.20;99.90
35960;DHT22;22043;50.970;7.192;2022-08-01T01:41:44;19.20;99.90
35960;DHT22;22043;50.970;7.192;2022-08-01T01:44:10;19.20;99.90
35960;DHT22;22043;50.970;7.192;2022-08-01T01:46:37;19.20;99.90
35960;DHT22;22043;50.970;7.192;2022-08-01T01:49:03;19.20;99.90
35960;DHT22;22043;50.970;7.192;2022-08-01T01:51:30;19.20;99.90
35960;DHT22;22043;50.970;7.192;2022-08-01T01:53:57;19.20;99.90
35960;DHT22;22043;50.970;7.192;2022-08-01T01:56:24;19.20;99.90
35960;DHT22;22043;50.970;7.192;2022-08-01T01:58:55;19.20;99.90
35960;DHT22;22043;50.970;7.192;2022-08-01T02:01:23;19.20;99.90
35960;DHT22;22043;50.970;7.192;2022-08-01T02:03:51;19.20;99.90
35960;DHT22;22043;50.970;7.192;2022-08-01T02:06:20;19.20;99.90
35960;DHT22;22043;50.970;7.192;2022-08-01T02:08:46;19.20;99.90
35960;DHT22;22043;50.970;7.192;2022-08-01T02:11:13;19.20;99.90
35960;DHT22;22043;50.970;7.192;2022-08-01T02:13:59;19.20;99.90
35960;DHT22;22043;50.970;7.192;2022-08-01T02:16:36;19.20;99.90
35960;DHT22;22043;50.970;7.192;2022-08-01T02:19:04;19.20;99.90
35960;DHT22;22043;50.970;7.192;2022-08-01T02:21:37;19.10;99.90
35960;DHT22;22043;50.970;7.192;2022-08-01T02:24:12;19.10;99.90
35960;DHT22;22043;50.970;7.192;2022-08-01T02:26:44;19.10;99.90
35960;DHT22;22043;50.970;7.192;2022-08-01T02:29:15;19.20;99.90
35960;DHT22;22043;50.970;7.192;2022-08-01T02:31:44;19.20;99.90
35960;DHT22;22043;50.970;7.192;2022-08-01T02:34:17;19.10;99.90
35960;DHT22;22043;50.970;7.192;2022-08-01T02:36:45;19.20;99.90
35960;DHT22;22043;50.970;7.192;2022-08-01T02:39:14;19.10;99.90
35960;DHT22;22043;50.970;7.192;2022-08-01T02:41:43;19.10;99.90
35960;DHT22;22043;50.970;7.192;2022-08-01T02:44:24;19.10;99.90
35960;DHT22;22043;50.970;7.192;2022-08-01T02:46:54;19.10;99.90
35960;DHT22;22043;50.970;7.192;2022-08-01T02:49:23;19.10;99.90
35960;DHT22;22043;50.970;7.192;2022-08-01T02:51:53;19.10;99.90
35960;DHT22;22043;50.970;7.192;2022-08-01T02:54:21;19.10;99.90
35960;DHT22;22043;50.970;7.192;2022-08-01T02:56:51;19.10;99.90
35960;DHT22;22043;50.970;7.192;2022-08-01T02:59:22;19.10;99.90
35960;DHT22;22043;50.970;7.192;2022-08-01T03:01:56;19.10;99.90
35960;DHT22;22043;50.970;7.192;2022-08-01T03:04:23;19.10;99.90
35960;DHT22;22043;50.970;7.192;2022-08-01T03:06:51;19.20;99.90
35960;DHT22;22043;50.970;7.192;2022-08-01T03:09:18;19.10;99.90
35960;DHT22;22043;50.970;7.192;2022-08-01T03:11:46;19.20;99.90
35960;DHT22;22043;50.970;7.192;2022-08-01T03:14:14;19.10;99.90
35960;DHT22;22043;50.970;7.192;2022-08-01T03:16:41;19.10;99.90
35960;DHT22;22043;50.970;7.192;2022-08-01T03:19:09;19.10;99.90
35960;DHT22;22043;50.970;7.192;2022-08-01T03:21:37;19.20;99.90
35960;DHT22;22043;50.970;7.192;2022-08-01T03:24:05;19.10;99.90
35960;DHT22;22043;50.970;7.192;2022-08-01T03:26:34;19.20;99.90
35960;DHT22;22043;50.970;7.192;2022-08-01T03:29:06;19.10;99.90
35960;DHT22;22043;50.970;7.192;2022-08-01T03:31:34;19.10;99.90
35960;DHT22;22043;50.970;7.192;2022-08-01T03:34:01;19.10;99.90
35960;DHT22;22043;50.970;7.192;2022-08-01T03:36:28;19.20;99.90
35960;DHT22;22043;50.970;7.192;2022-08-01T03:38:58;19.10;99.90
35960;DHT22;22043;50.970;7.192;2022-08-01T03:41:39;19.10;99.90
35960;DHT22;22043;50.970;7.192;2022-08-01T03:44:14;19.10;99.90
35960;DHT22;22043;50.970;7.192;2022-08-01T03:46:45;19.10;99.90
35960;DHT22;22043;50.970;7.192;2022-08-01T03:49:16;19.10;99.90
35960;DHT22;22043;50.970;7.192;2022-08-01T03:51:44;19.10;99.90
35960;DHT22;22043;50.970;7.192;2022-08-01T03:54:15;19.10;99.90
35960;DHT22;22043;50.970;7.192;2022-08-01T03:56:42;19.10;99.90
35960;DHT22;22043;50.970;7.192;2022-08-01T03:59:09;19.10;99.90
35960;DHT22;22043;50.970;7.192;2022-08-01T04:01:36;19.10;99.90
35960;DHT22;22043;50.970;7.192;2022-08-01T04:04:03;19.10;99.90
35960;DHT22;22043;50.970;7.192;2022-08-01T04:06:31;19.20;99.90
35960;DHT22;22043;50.970;7.192;2022-08-01T04:08:56;19.10;99.90
35960;DHT22;22043;50.970;7.192;2022-08-01T04:11:24;19.10;99.90
35960;DHT22;22043;50.970;7.192;2022-08-01T04:13:52;19.10;99.90
35960;DHT22;22043;50.970;7.192;2022-08-01T04:16:19;19.10;99.90
35960;DHT22;22043;50.970;7.192;2022-08-01T04:18:45;19.20;99.90
35960;DHT22;22043;50.970;7.192;2022-08-01T04:21:11;19.20;99.90
35960;DHT22;22043;50.970;7.192;2022-08-01T04:23:39;19.10;99.90
35960;DHT22;22043;50.970;7.192;2022-08-01T04:26:05;19.10;99.90
35960;DHT22;22043;50.970;7.192;2022-08-01T04:28:34;19.10;99.90
35960;DHT22;22043;50.970;7.192;2022-08-01T04:31:02;19.10;99.90
35960;DHT22;22043;50.970;7.192;2022-08-01T04:33:29;19.10;99.90
35960;DHT22;22043;50.970;7.192;2022-08-01T04:35:58;19.10;99.90
35960;DHT22;22043;50.970;7.192;2022-08-01T04:38:26;19.10;99.90
35960;DHT22;22043;50.970;7.192;2022-08-01T04:40:54;19.10;99.90
35960;DHT22;22043;50.970;7.192;2022-08-01T04:43:21;19.20;99.90
35960;DHT22;22043;50.970;7.192;2022-08-01T04:45:49;19.20;99.90
35960;DHT22;22043;50.970;7.192;2022-08-01T04:48:17;19.10;99.90
35960;DHT22;22043;50.970;7.192;2022-08-01T04:50:45;19.20;99.90
35960;DHT22;22043;50.970;7.192;2022-08-01T04:53:16;19.20;99.90
35960;DHT22;22043;50.970;7.192;2022-08-01T04:55:45;19.20;99.90
35960;DHT22;22043;50.970;7.192;2022-08-01T04:58:11;19.20;99.90
35960;DHT22;22043;50.970;7.192;2022-08-01T05:00:37;19.20;99.90
35960;DHT22;22043;50.970;7.192;2022-08-01T05:03:03;19.20;99.90
35960;DHT22;22043;50.970;7.192;2022-08-01T05:05:29;19.20;99.90
35960;DHT22;22043;50.970;7.192;2022-08-01T05:07:56;19.20;99.90
35960;DHT22;22043;50.970;7.192;2022-08-01T05:10:21;19.20;99.90
35960;DHT22;22043;50.970;7.192;2022-08-01T05:12:47;19.30;99.90
35960;DHT22;22043;50.970;7.192;2022-08-01T05:15:13;19.30;99.90
35960;DHT22;22043;50.970;7.192;2022-08-01T05:17:38;19.30;99.90
35960;DHT22;22043;50.970;7.192;2022-08-01T05:20:04;19.30;99.90
35960;DHT22;22043;50.970;7.192;2022-08-01T05:22:31;19.30;99.90
35960;DHT22;22043;50.970;7.192;2022-08-01T05:24:57;19.30;99.90
35960;DHT22;22043;50.970;7.192;2022-08-01T05:27:25;19.30;99.90
35960;DHT22;22043;50.970;7.192;2022-08-01T05:29:51;19.40;99.90
35960;DHT22;22043;50.970;7.192;2022-08-01T05:32:16;19.40;99.90
35960;DHT22;22043;50.970;7.192;2022-08-01T05:34:42;19.40;99.90
35960;DHT22;22043;50.970;7.192;2022-08-01T05:37:08;19.40;99.90
35960;DHT22;22043;50.970;7.192;2022-08-01T05:39:34;19.40;99.90
35960;DHT22;22043;50.970;7.192;2022-08-01T05:41:59;19.40;99.90
35960;DHT22;22043;50.970;7.192;2022-08-01T05:44:25;19.40;99.90
35960;DHT22;22043;50.970;7.192;2022-08-01T05:46:51;19.50;99.90
35960;DHT22;22043;50.970;7.192;2022-08-01T05:49:17;19.50;99.90
35960;DHT22;22043;50.970;7.192;2022-08-01T05:51:42;19.50;99.90
35960;DHT22;22043;50.970;7.192;2022-08-01T05:54:08;19.60;99.90
35960;DHT22;22043;50.970;7.192;2022-08-01T05:56:34;19.60;99.90
35960;DHT22;22043;50.970;7.192;2022-08-01T05:58:59;19.60;99.90
35960;DHT22;22043;50.970;7.192;2022-08-01T06:01:25;19.60;99.90
35960;DHT22;22043;50.970;7.192;2022-08-01T06:03:51;19.60;99.90
35960;DHT22;22043;50.970;7.192;2022-08-01T06:06:22;19.60;99.90
35960;DHT22;22043;50.970;7.192;2022-08-01T06:08:48;19.60;99.90
35960;DHT22;22043;50.970;7.192;2022-08-01T06:11:14;19.60;99.90
35960;DHT22;22043;50.970;7.192;2022-08-01T06:13:39;19.60;99.90
35960;DHT22;22043;50.970;7.192;2022-08-01T06:16:05;19.60;99.90
35960;DHT22;22043;50.970;7.192;2022-08-01T06:18:31;19.70;99.90
35960;DHT22;22043;50.970;7.192;2022-08-01T06:20:56;19.70;99.90
35960;DHT22;22043;50.970;7.192;2022-08-01T06:23:22;19.70;99.90
35960;DHT22;22043;50.970;7.192;2022-08-01T06:25:48;19.70;99.90
35960;DHT22;22043;50.970;7.192;2022-08-01T06:28:17;19.80;99.90
35960;DHT22;22043;50.970;7.192;2022-08-01T06:30:42;19.80;99.90
35960;DHT22;22043;50.970;7.192;2022-08-01T06:33:08;19.80;99.90
35960;DHT22;22043;50.970;7.192;2022-08-01T06:35:34;19.90;99.90
35960;DHT22;22043;50.970;7.192;2022-08-01T06:37:59;19.90;99.90
35960;DHT22;22043;50.970;7.192;2022-08-01T06:40:25;19.90;99.90
35960;DHT22;22043;50.970;7.192;2022-08-01T06:42:51;19.90;99.90
35960;DHT22;22043;50.970;7.192;2022-08-01T06:45:17;19.90;99.90
35960;DHT22;22043;50.970;7.192;2022-08-01T06:47:44;19.90;99.90
35960;DHT22;22043;50.970;7.192;2022-08-01T06:50:11;19.90;99.90
35960;DHT22;22043;50.970;7.192;2022-08-01T06:52:39;20.00;99.90
35960;DHT22;22043;50.970;7.192;2022-08-01T06:55:05;20.00;99.90
35960;DHT22;22043;50.970;7.192;2022-08-01T06:57:31;20.00;99.90
35960;DHT22;22043;50.970;7.192;2022-08-01T06:59:56;20.00;99.90
35960;DHT22;22043;50.970;7.192;2022-08-01T07:02:23;20.00;99.90
35960;DHT22;22043;50.970;7.192;2022-08-01T07:04:48;20.00;99.90
35960;DHT22;22043;50.970;7.192;2022-08-01T07:07:14;20.00;99.90
35960;DHT22;22043;50.970;7.192;2022-08-01T07:09:40;20.00;99.90
35960;DHT22;22043;50.970;7.192;2022-08-01T07:12:09;20.00;99.90
35960;DHT22;22043;50.970;7.192;2022-08-01T07:14:34;20.00;99.90
35960;DHT22;22043;50.970;7.192;2022-08-01T07:17:00;20.10;99.90
35960;DHT22;22043;50.970;7.192;2022-08-01T07:19:26;20.10;99.90
35960;DHT22;22043;50.970;7.192;2022-08-01T07:21:52;20.10;99.90
35960;DHT22;22043;50.970;7.192;2022-08-01T07:24:18;20.10;99.90
35960;DHT22;22043;50.970;7.192;2022-08-01T07:26:46;20.10;99.90
35960;DHT22;22043;50.970;7.192;2022-08-01T07:29:12;20.10;99.90
35960;DHT22;22043;50.970;7.192;2022-08-01T07:31:38;20.10;99.90
35960;DHT22;22043;50.970;7.192;2022-08-01T07:34:04;20.10;99.90
35960;DHT22;22043;50.970;7.192;2022-08-01T07:36:30;20.10;99.90
35960;DHT22;22043;50.970;7.192;2022-08-01T07:38:55;20.20;99.90
35960;DHT22;22043;50.970;7.192;2022-08-01T07:41:22;20.20;99.90
35960;DHT22;22043;50.970;7.192;2022-08-01T07:43:48;20.30;99.90
35960;DHT22;22043;50.970;7.192;2022-08-01T07:46:14;20.30;99.90
35960;DHT22;22043;50.970;7.192;2022-08-01T07:48:41;20.30;99.90
35960;DHT22;22043;50.970;7.192;2022-08-01T07:51:06;20.30;99.90
35960;DHT22;22043;50.970;7.192;2022-08-01T07:53:33;20.30;99.90
35960;DHT22;22043;50.970;7.192;2022-08-01T07:55:59;20.40;99.90
35960;DHT22;22043;50.970;7.192;2022-08-01T07:58:25;20.40;99.90
35960;DHT22;22043;50.970;7.192;2022-08-01T08:00:50;20.40;99.90
35960;DHT22;22043;50.970;7.192;2022-08-01T08:03:16;20.50;99.90
35960;DHT22;22043;50.970;7.192;2022-08-01T08:05:42;20.50;99.90
35960;DHT22;22043;50.970;7.192;2022-08-01T08:08:08;20.50;99.90
35960;DHT22;22043;50.970;7.192;2022-08-01T08:10:35;20.60;99.90
35960;DHT22;22043;50.970;7.192;2022-08-01T08:13:02;20.60;99.90
35960;DHT22;22043;50.970;7.192;2022-08-01T08:15:29;20.60;99.90
35960;DHT22;22043;50.970;7.192;2022-08-01T08:17:55;20.60;99.90
35960;DHT22;22043;50.970;7.192;2022-08-01T08:20:21;20.70;99.90
35960;DHT22;22043;50.970;7.192;2022-08-01T08:22:55;20.70;99.90
35960;DHT22;22043;50.970;7.192;2022-08-01T08:25:23;20.70;99.90
35960;DHT22;22043;50.970;7.192;2022-08-01T08:27:49;20.70;99.90
35960;DHT22;22043;50.970;7.192;2022-08-01T08:30:15;20.70;99.90
35960;DHT22;22043;50.970;7.192;2022-08-01T08:32:42;20.60;99.90
35960;DHT22;22043;50.970;7.192;2022-08-01T08:35:08;20.60;99.90
35960;DHT22;22043;50.970;7.192;2022-08-01T08:37:35;20.60;99.90
35960;DHT22;22043;50.970;7.192;2022-08-01T08:40:00;20.60;99.90
35960;DHT22;22043;50.970;7.192;2022-08-01T08:42:26;20.60;99.90
35960;DHT22;22043;50.970;7.192;2022-08-01T08:44:52;20.70;99.90
35960;DHT22;22043;50.970;7.192;2022-08-01T08:47:21;20.70;99.90
35960;DHT22;22043;50.970;7.192;2022-08-01T08:49:51;20.70;99.90
35960;DHT22;22043;50.970;7.192;2022-08-01T08:52:21;20.70;99.90
35960;DHT22;22043;50.970;7.192;2022-08-01T08:54:48;20.80;99.90
35960;DHT22;22043;50.970;7.192;2022-08-01T08:57:15;20.80;99.90
35960;DHT22;22043;50.970;7.192;2022-08-01T08:59:43;20.90;99.90
35960;DHT22;22043;50.970;7.192;2022-08-01T09:02:09;20.90;99.90
35960;DHT22;22043;50.970;7.192;2022-08-01T09:04:36;20.90;99.90
35960;DHT22;22043;50.970;7.192;2022-08-01T09:07:04;21.00;99.90
35960;DHT22;22043;50.970;7.192;2022-08-01T09:09:30;21.00;99.90
35960;DHT22;22043;50.970;7.192;2022-08-01T09:11:56;21.00;99.90
35960;DHT22;22043;50.970;7.192;2022-08-01T09:14:22;20.90;99.90
35960;DHT22;22043;50.970;7.192;2022-08-01T09:17:18;20.90;99.90
35960;DHT22;22043;50.970;7.192;2022-08-01T09:19:54;20.90;99.90
35960;DHT22;22043;50.970;7.192;2022-08-01T09:22:24;20.90;99.90
35960;DHT22;22043;50.970;7.192;2022-08-01T09:25:05;21.00;99.90
35960;DHT22;22043;50.970;7.192;2022-08-01T09:27:33;21.10;99.90
35960;DHT22;22043;50.970;7.192;2022-08-01T09:30:14;21.10;99.90
35960;DHT22;22043;50.970;7.192;2022-08-01T09:35:30;21.20;99.90
35960;DHT22;22043;50.970;7.192;2022-08-01T09:38:21;21.30;99.90
35960;DHT22;22043;50.970;7.192;2022-08-01T09:40:56;21.30;99.90
35960;DHT22;22043;50.970;7.192;2022-08-01T09:43:24;21.30;99.90
35960;DHT22;22043;50.970;7.192;2022-08-01T09:45:51;21.30;99.90
35960;DHT22;22043;50.970;7.192;2022-08-01T09:48:17;21.40;99.90
35960;DHT22;22043;50.970;7.192;2022-08-01T09:50:47;21.30;99.90
35960;DHT22;22043;50.970;7.192;2022-08-01T09:53:14;21.40;99.90
35960;DHT22;22043;50.970;7.192;2022-08-01T09:55:41;21.40;99.90
35960;DHT22;22043;50.970;7.192;2022-08-01T09:58:06;21.40;99.90
35960;DHT22;22043;50.970;7.192;2022-08-01T10:00:33;21.50;99.90
35960;DHT22;22043;50.970;7.192;2022-08-01T10:05:44;21.60;99.90
35960;DHT22;22043;50.970;7.192;2022-08-01T10:08:10;21.70;99.90
35960;DHT22;22043;50.970;7.192;2022-08-01T10:10:38;21.70;99.90
35960;DHT22;22043;50.970;7.192;2022-08-01T10:13:04;21.70;99.90
35960;DHT22;22043;50.970;7.192;2022-08-01T10:15:30;21.80;99.90
35960;DHT22;22043;50.970;7.192;2022-08-01T10:18:00;21.80;99.90
35960;DHT22;22043;50.970;7.192;2022-08-01T10:20:29;21.90;99.90
35960;DHT22;22043;50.970;7.192;2022-08-01T10:22:57;21.90;99.90
35960;DHT22;22043;50.970;7.192;2022-08-01T10:25:28;21.90;99.90
35960;DHT22;22043;50.970;7.192;2022-08-01T10:27:54;21.90;99.90
35960;DHT22;22043;50.970;7.192;2022-08-01T10:30:22;21.90;99.90
35960;DHT22;22043;50.970;7.192;2022-08-01T10:32:50;21.90;99.90
35960;DHT22;22043;50.970;7.192;2022-08-01T10:35:18;21.80;99.90
35960;DHT22;22043;50.970;7.192;2022-08-01T10:37:48;21.80;99.90
35960;DHT22;22043;50.970;7.192;2022-08-01T10:40:16;21.80;99.90
35960;DHT22;22043;50.970;7.192;2022-08-01T10:42:45;21.80;99.90
35960;DHT22;22043;50.970;7.192;2022-08-01T10:45:15;21.80;99.90
35960;DHT22;22043;50.970;7.192;2022-08-01T10:48:45;21.80;99.90
35960;DHT22;22043;50.970;7.192;2022-08-01T10:50:52;21.90;99.90
35960;DHT22;22043;50.970;7.192;2022-08-01T10:53:23;22.00;99.90
35960;DHT22;22043;50.970;7.192;2022-08-01T10:56:00;22.00;99.90
35960;DHT22;22043;50.970;7.192;2022-08-01T11:01:14;22.20;99.90
35960;DHT22;22043;50.970;7.192;2022-08-01T11:03:45;22.20;99.90
35960;DHT22;22043;50.970;7.192;2022-08-01T11:06:35;22.20;99.90
35960;DHT22;22043;50.970;7.192;2022-08-01T11:14:24;22.30;99.90
35960;DHT22;22043;50.970;7.192;2022-08-01T11:16:50;22.30;99.90
35960;DHT22;22043;50.970;7.192;2022-08-01T11:19:15;22.30;99.90
35960;DHT22;22043;50.970;7.192;2022-08-01T11:27:30;22.50;99.90
35960;DHT22;22043;50.970;7.192;2022-08-01T11:32:52;22.50;99.90
35960;DHT22;22043;50.970;7.192;2022-08-01T11:35:19;22.40;99.90
35960;DHT22;22043;50.970;7.192;2022-08-01T11:37:46;22.40;99.90
35960;DHT22;22043;50.970;7.192;2022-08-01T11:40:24;22.40;99.90
35960;DHT22;22043;50.970;7.192;2022-08-01T11:48:24;22.30;99.90
35960;DHT22;22043;50.970;7.192;2022-08-01T11:50:54;22.30;99.90
35960;DHT22;22043;50.970;7.192;2022-08-01T11:53:20;22.40;99.90
35960;DHT22;22043;50.970;7.192;2022-08-01T11:55:54;22.40;99.90
35960;DHT22;22043;50.970;7.192;2022-08-01T11:58:22;22.40;99.90
35960;DHT22;22043;50.970;7.192;2022-08-01T12:00:56;22.40;99.90
35960;DHT22;22043;50.970;7.192;2022-08-01T12:03:26;22.40;99.90
35960;DHT22;22043;50.970;7.192;2022-08-01T12:05:54;22.40;99.90
35960;DHT22;22043;50.970;7.192;2022-08-01T12:08:30;22.40;99.90
35960;DHT22;22043;50.970;7.192;2022-08-01T12:10:58;22.40;99.90
35960;DHT22;22043;50.970;7.192;2022-08-01T12:13:25;22.30;99.90
35960;DHT22;22043;50.970;7.192;2022-08-01T12:15:50;22.40;99.90
35960;DHT22;22043;50.970;7.192;2022-08-01T12:18:16;22.50;99.90
35960;DHT22;22043;50.970;7.192;2022-08-01T12:20:44;22.50;99.90
35960;DHT22;22043;50.970;7.192;2022-08-01T12:23:12;22.50;99.90
35960;DHT22;22043;50.970;7.192;2022-08-01T12:25:39;22.50;99.90
35960;DHT22;22043;50.970;7.192;2022-08-01T12:28:08;22.50;99.90
35960;DHT22;22043;50.970;7.192;2022-08-01T12:30:35;22.40;99.90
35960;DHT22;22043;50.970;7.192;2022-08-01T12:33:09;22.50;99.90
35960;DHT22;22043;50.970;7.192;2022-08-01T12:35:37;22.50;99.90
35960;DHT22;22043;50.970;7.192;2022-08-01T12:38:06;22.70;99.90
35960;DHT22;22043;50.970;7.192;2022-08-01T12:40:34;22.70;99.90
35960;DHT22;22043;50.970;7.192;2022-08-01T12:43:03;22.90;99.90
35960;DHT22;22043;50.970;7.192;2022-08-01T12:45:45;22.90;99.90
35960;DHT22;22043;50.970;7.192;2022-08-01T12:48:13;22.80;99.90
35960;DHT22;22043;50.970;7.192;2022-08-01T12:50:45;22.80;99.90
35960;DHT22;22043;50.970;7.192;2022-08-01T12:53:11;22.70;99.90
35960;DHT22;22043;50.970;7.192;2022-08-01T12:55:55;22.70;99.90
35960;DHT22;22043;50.970;7.192;2022-08-01T12:58:21;22.60;99.90
35960;DHT22;22043;50.970;7.192;2022-08-01T13:00:49;22.60;99.90
35960;DHT22;22043;50.970;7.192;2022-08-01T13:03:18;22.70;99.90
35960;DHT22;22043;50.970;7.192;2022-08-01T13:05:51;22.70;99.90
35960;DHT22;22043;50.970;7.192;2022-08-01T13:08:30;22.70;99.90
35960;DHT22;22043;50.970;7.192;2022-08-01T13:11:10;22.70;99.90
35960;DHT22;22043;50.970;7.192;2022-08-01T13:13:48;22.70;99.90
35960;DHT22;22043;50.970;7.192;2022-08-01T13:16:16;22.80;99.90
35960;DHT22;22043;50.970;7.192;2022-08-01T13:18:47;22.80;99.90
35960;DHT22;22043;50.970;7.192;2022-08-01T13:21:17;22.90;99.90
35960;DHT22;22043;50.970;7.192;2022-08-01T13:24:08;22.90;99.90
35960;DHT22;22043;50.970;7.192;2022-08-01T13:26:59;23.00;99.90
35960;DHT22;22043;50.970;7.192;2022-08-01T13:29:34;23.00;99.90
35960;DHT22;22043;50.970;7.192;2022-08-01T13:32:17;23.10;99.90
35960;DHT22;22043;50.970;7.192;2022-08-01T13:34:43;23.10;99.90
35960;DHT22;22043;50.970;7.192;2022-08-01T13:37:08;23.10;99.90
35960;DHT22;22043;50.970;7.192;2022-08-01T13:39:34;23.20;99.90
35960;DHT22;22043;50.970;7.192;2022-08-01T13:42:11;23.10;99.90
35960;DHT22;22043;50.970;7.192;2022-08-01T13:44:37;23.10;99.90
35960;DHT22;22043;50.970;7.192;2022-08-01T13:47:04;23.10;99.90
35960;DHT22;22043;50.970;7.192;2022-08-01T13:49:30;23.10;99.90
35960;DHT22;22043;50.970;7.192;2022-08-01T13:51:56;23.10;99.90
35960;DHT22;22043;50.970;7.192;2022-08-01T13:54:22;23.20;99.90
35960;DHT22;22043;50.970;7.192;2022-08-01T13:56:49;23.20;99.90
35960;DHT22;22043;50.970;7.192;2022-08-01T13:59:15;23.30;99.90
35960;DHT22;22043;50.970;7.192;2022-08-01T14:01:41;23.40;99.90
35960;DHT22;22043;50.970;7.192;2022-08-01T14:04:07;23.40;99.90
35960;DHT22;22043;50.970;7.192;2022-08-01T14:06:32;23.30;99.90
35960;DHT22;22043;50.970;7.192;2022-08-01T14:08:58;23.20;99.90
35960;DHT22;22043;50.970;7.192;2022-08-01T14:11:24;23.20;99.90
35960;DHT22;22043;50.970;7.192;2022-08-01T14:13:50;23.10;99.90
35960;DHT22;22043;50.970;7.192;2022-08-01T14:16:16;23.10;99.90
35960;DHT22;22043;50.970;7.192;2022-08-01T14:18:42;23.10;99.90
35960;DHT22;22043;50.970;7.192;2022-08-01T14:21:08;23.10;99.90
35960;DHT22;22043;50.970;7.192;2022-08-01T14:23:33;23.00;99.90
35960;DHT22;22043;50.970;7.192;2022-08-01T14:25:59;23.00;99.90
35960;DHT22;22043;50.970;7.192;2022-08-01T14:28:25;23.00;99.90
35960;DHT22;22043;50.970;7.192;2022-08-01T14:30:52;23.10;99.90
35960;DHT22;22043;50.970;7.192;2022-08-01T14:33:18;23.10;99.90
35960;DHT22;22043;50.970;7.192;2022-08-01T14:35:44;23.20;99.90
35960;DHT22;22043;50.970;7.192;2022-08-01T14:38:09;23.20;99.90
35960;DHT22;22043;50.970;7.192;2022-08-01T14:40:35;23.20;99.90
35960;DHT22;22043;50.970;7.192;2022-08-01T14:43:01;23.20;99.90
35960;DHT22;22043;50.970;7.192;2022-08-01T14:45:27;23.10;99.90
35960;DHT22;22043;50.970;7.192;2022-08-01T14:47:53;23.10;99.90
35960;DHT22;22043;50.970;7.192;2022-08-01T14:50:19;23.00;99.90
35960;DHT22;22043;50.970;7.192;2022-08-01T14:52:45;23.10;99.90
35960;DHT22;22043;50.970;7.192;2022-08-01T14:55:11;23.20;99.90
35960;DHT22;22043;50.970;7.192;2022-08-01T14:57:38;23.20;99.90
35960;DHT22;22043;50.970;7.192;2022-08-01T15:00:06;23.10;99.90
35960;DHT22;22043;50.970;7.192;2022-08-01T15:02:33;23.10;99.90
35960;DHT22;22043;50.970;7.192;2022-08-01T15:04:58;23.20;99.90
35960;DHT22;22043;50.970;7.192;2022-08-01T15:07:24;23.20;99.90
35960;DHT22;22043;50.970;7.192;2022-08-01T15:09:50;23.30;99.90
35960;DHT22;22043;50.970;7.192;2022-08-01T15:12:15;23.30;99.90
35960;DHT22;22043;50.970;7.192;2022-08-01T15:14:41;23.40;99.90
35960;DHT22;22043;50.970;7.192;2022-08-01T15:17:13;23.30;99.90
35960;DHT22;22043;50.970;7.192;2022-08-01T15:19:39;23.30;99.90
35960;DHT22;22043;50.970;7.192;2022-08-01T15:22:05;23.20;99.90
35960;DHT22;22043;50.970;7.192;2022-08-01T15:24:31;23.20;99.90
35960;DHT22;22043;50.970;7.192;2022-08-01T15:26:57;23.20;99.90
35960;DHT22;22043;50.970;7.192;2022-08-01T15:29:23;23.20;99.90
35960;DHT22;22043;50.970;7.192;2022-08-01T15:31:48;23.10;99.90
35960;DHT22;22043;50.970;7.192;2022-08-01T15:34:15;23.10;99.90
35960;DHT22;22043;50.970;7.192;2022-08-01T15:36:40;23.10;99.90
35960;DHT22;22043;50.970;7.192;2022-08-01T15:39:11;23.00;99.90
35960;DHT22;22043;50.970;7.192;2022-08-01T15:41:36;23.00;99.90
35960;DHT22;22043;50.970;7.192;2022-08-01T15:44:02;23.00;99.90
35960;DHT22;22043;50.970;7.192;2022-08-01T15:46:28;23.10;99.90
35960;DHT22;22043;50.970;7.192;2022-08-01T15:48:54;23.10;99.90
35960;DHT22;22043;50.970;7.192;2022-08-01T15:51:19;23.10;99.90
35960;DHT22;22043;50.970;7.192;2022-08-01T15:53:45;23.20;99.90
35960;DHT22;22043;50.970;7.192;2022-08-01T15:56:12;23.10;99.90
35960;DHT22;22043;50.970;7.192;2022-08-01T15:58:38;23.10;99.90
35960;DHT22;22043;50.970;7.192;2022-08-01T16:01:04;23.10;99.90
35960;DHT22;22043;50.970;7.192;2022-08-01T16:03:30;23.00;99.90
35960;DHT22;22043;50.970;7.192;2022-08-01T16:05:55;23.00;99.90
35960;DHT22;22043;50.970;7.192;2022-08-01T16:08:21;22.90;99.90
35960;DHT22;22043;50.970;7.192;2022-08-01T16:10:47;22.90;99.90
35960;DHT22;22043;50.970;7.192;2022-08-01T16:13:13;22.80;99.90
35960;DHT22;22043;50.970;7.192;2022-08-01T16:15:39;22.80;99.90